createdAt,value
2019-03-23T00:02:28.783Z,101203.16
2019-03-23T00:05:00.847Z,101202.36
2019-03-23T00:07:33.002Z,101202.81
2019-03-23T00:10:05.143Z,101208.17
2019-03-23T00:12:37.199Z,101207.65
2019-03-23T00:15:10.655Z,101210.02
2019-03-23T00:17:42.855Z,101218.47
2019-03-23T00:20:14.985Z,101223.02
2019-03-23T00:22:47.083Z,101227.55
2019-03-23T00:25:19.224Z,101232.45
2019-03-23T00:27:51.340Z,101232.55
2019-03-23T00:30:23.405Z,101230.43
2019-03-23T00:32:55.504Z,101231.33
2019-03-23T00:35:27.582Z,101232.38
2019-03-23T00:38:02.423Z,101235.25
2019-03-23T00:40:34.532Z,101233.94
2019-03-23T00:43:06.696Z,101235.00
2019-03-23T00:45:42.140Z,101230.76
2019-03-23T00:48:14.260Z,101236.17
2019-03-23T00:50:46.366Z,101249.48
2019-03-23T00:53:18.420Z,101250.52
2019-03-23T00:55:50.548Z,101259.48
2019-03-23T00:58:22.731Z,101254.73
2019-03-23T01:00:54.859Z,101258.41
2019-03-23T01:03:26.875Z,101261.64
2019-03-23T01:05:58.992Z,101256.97
2019-03-23T01:08:31.138Z,101261.89
2019-03-23T01:11:03.252Z,101262.11
2019-03-23T01:13:35.347Z,101260.89
2019-03-23T01:16:07.497Z,101268.96
2019-03-23T01:18:39.615Z,101266.03
2019-03-23T01:21:11.780Z,101270.98
2019-03-23T01:23:43.853Z,101270.63
2019-03-23T01:26:16.061Z,101272.75
2019-03-23T01:28:48.253Z,101277.62
2019-03-23T01:31:20.349Z,101280.98
2019-03-23T01:33:52.493Z,101274.80
2019-03-23T01:36:24.578Z,101271.32
2019-03-23T01:38:56.676Z,101272.75
2019-03-23T01:41:28.710Z,101275.77
2019-03-23T01:44:00.840Z,101270.90
2019-03-23T01:46:32.988Z,101275.02
2019-03-23T01:49:05.131Z,101271.18
2019-03-23T01:51:37.299Z,101273.14
2019-03-23T01:54:09.428Z,101269.64
2019-03-23T01:56:41.547Z,101277.73
2019-03-23T01:59:13.717Z,101271.80
2019-03-23T02:01:45.881Z,101273.33
2019-03-23T02:04:17.996Z,101270.44
2019-03-23T02:06:50.073Z,101276.15
2019-03-23T02:09:22.214Z,101272.35
2019-03-23T02:11:54.348Z,101278.69
2019-03-23T02:14:26.418Z,101276.75
2019-03-23T02:16:58.540Z,101279.95
2019-03-23T02:19:30.675Z,101280.08
2019-03-23T02:22:02.770Z,101278.83
2019-03-23T02:24:34.935Z,101283.73
2019-03-23T02:27:07.086Z,101287.35
2019-03-23T02:29:39.208Z,101295.88
2019-03-23T02:32:11.338Z,101299.97
2019-03-23T02:34:43.425Z,101306.73
2019-03-23T02:37:27.250Z,101312.44
2019-03-23T02:39:49.321Z,101313.12
2019-03-23T02:42:21.415Z,101311.61
2019-03-23T02:44:53.539Z,101315.88
2019-03-23T02:47:25.679Z,101316.50
2019-03-23T02:49:57.779Z,101329.47
2019-03-23T02:52:29.915Z,101336.38
2019-03-23T02:55:02.176Z,101328.05
2019-03-23T02:57:34.322Z,101332.09
2019-03-23T03:00:08.563Z,101325.52
2019-03-23T03:02:40.659Z,101337.05
2019-03-23T03:05:12.870Z,101339.88
2019-03-23T03:07:45.009Z,101350.88
2019-03-23T03:10:39.767Z,101349.75
2019-03-23T03:13:11.916Z,101356.89
2019-03-23T03:15:44.062Z,101357.72
2019-03-23T03:18:16.208Z,101358.99
2019-03-23T03:20:48.331Z,101366.13
2019-03-23T03:23:21.006Z,101363.69
2019-03-23T03:25:53.152Z,101369.16
2019-03-23T03:28:25.278Z,101365.21
2019-03-23T03:30:57.474Z,101374.41
2019-03-23T03:33:29.586Z,101380.06
2019-03-23T03:36:01.659Z,101376.99
2019-03-23T03:38:33.834Z,101381.45
2019-03-23T03:41:05.976Z,101376.72
2019-03-23T03:43:38.066Z,101376.77
2019-03-23T03:46:10.170Z,101376.80
2019-03-23T03:48:42.296Z,101375.93
2019-03-23T03:51:14.445Z,101383.64
2019-03-23T03:53:46.523Z,101388.97
2019-03-23T03:56:18.632Z,101393.84
2019-03-23T03:58:50.759Z,101393.47
2019-03-23T04:01:22.845Z,101393.52
2019-03-23T04:03:55.000Z,101396.94
2019-03-23T04:06:27.136Z,101390.38
2019-03-23T04:08:59.237Z,101385.95
2019-03-23T04:11:31.410Z,101374.93
2019-03-23T04:14:03.532Z,101385.91
2019-03-23T04:16:35.680Z,101386.79
2019-03-23T04:19:07.772Z,101389.06
2019-03-23T04:21:39.872Z,101391.77
2019-03-23T04:24:11.987Z,101394.45
2019-03-23T04:26:44.184Z,101394.84
2019-03-23T04:29:16.249Z,101398.77
2019-03-23T04:31:48.337Z,101397.11
2019-03-23T04:34:20.453Z,101395.00
2019-03-23T04:36:52.570Z,101398.98
2019-03-23T04:39:24.607Z,101407.28
2019-03-23T04:41:56.716Z,101397.14
2019-03-23T04:44:28.857Z,101397.89
2019-03-23T04:47:00.974Z,101401.41
2019-03-23T04:49:33.118Z,101404.02
2019-03-23T04:52:05.243Z,101408.45
2019-03-23T04:54:38.964Z,101416.28
2019-03-23T04:57:11.254Z,101417.59
2019-03-23T04:59:43.379Z,101425.03
2019-03-23T05:02:17.836Z,101433.35
2019-03-23T05:04:49.971Z,101425.95
2019-03-23T05:07:22.127Z,101425.91
2019-03-23T05:09:54.297Z,101423.77
2019-03-23T05:12:26.507Z,101419.38
2019-03-23T05:14:58.653Z,101417.78
2019-03-23T05:17:30.856Z,101419.97
2019-03-23T05:20:02.939Z,101418.58
2019-03-23T05:22:35.042Z,101429.05
2019-03-23T05:25:09.169Z,101436.53
2019-03-23T05:27:41.316Z,101432.15
2019-03-23T05:30:13.492Z,101424.71
2019-03-23T05:32:45.547Z,101422.95
2019-03-23T05:35:17.649Z,101435.61
2019-03-23T05:37:49.690Z,101440.39
2019-03-23T05:40:21.727Z,101445.20
2019-03-23T05:42:53.886Z,101450.37
2019-03-23T05:45:25.896Z,101457.97
2019-03-23T05:47:58.006Z,101463.18
2019-03-23T05:50:30.203Z,101461.47
2019-03-23T05:53:02.407Z,101458.00
2019-03-23T05:55:34.547Z,101464.93
2019-03-23T05:58:06.656Z,101465.88
2019-03-23T06:00:38.781Z,101475.36
2019-03-23T06:03:10.885Z,101480.17
2019-03-23T06:05:42.949Z,101484.50
2019-03-23T06:08:15.079Z,101485.38
2019-03-23T06:10:47.251Z,101481.30
2019-03-23T06:13:19.391Z,101490.01
2019-03-23T06:15:51.491Z,101486.90
2019-03-23T06:18:23.642Z,101490.77
2019-03-23T06:20:55.754Z,101492.44
2019-03-23T06:23:27.851Z,101497.17
2019-03-23T06:25:59.993Z,101493.59
2019-03-23T06:28:32.104Z,101500.52
2019-03-23T06:31:04.238Z,101494.42
2019-03-23T06:33:38.774Z,101497.02
2019-03-23T06:36:10.926Z,101498.25
2019-03-23T06:38:43.042Z,101502.98
2019-03-23T06:41:15.189Z,101506.09
2019-03-23T06:43:47.321Z,101505.62
2019-03-23T06:46:19.418Z,101506.13
2019-03-23T06:48:51.587Z,101509.59
2019-03-23T06:51:23.744Z,101494.70
2019-03-23T06:53:55.885Z,101497.73
2019-03-23T06:56:28.033Z,101498.48
2019-03-23T06:59:00.216Z,101503.18
2019-03-23T07:01:32.384Z,101502.34
2019-03-23T07:04:04.618Z,101505.72
2019-03-23T07:06:36.763Z,101506.20
2019-03-23T07:09:16.211Z,101512.16
2019-03-23T07:11:43.458Z,101505.72
2019-03-23T07:14:17.159Z,101510.09
2019-03-23T07:16:52.051Z,101511.33
2019-03-23T07:19:24.254Z,101510.97
2019-03-23T07:21:56.414Z,101516.72
2019-03-23T07:24:28.607Z,101514.47
2019-03-23T07:27:01.066Z,101520.09
2019-03-23T07:29:33.237Z,101524.42
2019-03-23T07:32:06.250Z,101524.34
2019-03-23T07:34:40.774Z,101530.80
2019-03-23T07:37:12.829Z,101532.80
2019-03-23T07:39:45.115Z,101533.64
2019-03-23T07:42:17.321Z,101536.58
2019-03-23T07:44:49.471Z,101540.22
2019-03-23T07:47:21.619Z,101531.84
2019-03-23T07:49:53.743Z,101538.80
2019-03-23T07:52:25.861Z,101543.59
2019-03-23T07:55:00.453Z,101542.62
2019-03-23T07:57:32.541Z,101540.56
2019-03-23T08:00:05.115Z,101547.84
2019-03-23T08:02:37.270Z,101544.67
2019-03-23T08:05:10.246Z,101552.87
2019-03-23T08:07:42.368Z,101543.92
2019-03-23T08:10:30.500Z,101532.95
2019-03-23T08:13:03.127Z,101530.09
2019-03-23T08:15:35.235Z,101530.42
2019-03-23T08:18:07.424Z,101534.27
2019-03-23T08:20:39.488Z,101534.09
2019-03-23T08:23:11.652Z,101536.16
2019-03-23T08:25:43.746Z,101541.34
2019-03-23T08:28:15.927Z,101533.30
2019-03-23T08:30:48.095Z,101541.81
2019-03-23T08:33:20.215Z,101542.22
2019-03-23T08:35:52.363Z,101540.00
2019-03-23T08:38:24.507Z,101543.44
2019-03-23T08:40:56.631Z,101541.52
2019-03-23T08:43:28.774Z,101544.55
2019-03-23T08:46:00.922Z,101544.88
2019-03-23T08:48:33.070Z,101549.55
2019-03-23T08:51:05.221Z,101549.92
2019-03-23T08:53:37.283Z,101548.46
2019-03-23T08:56:12.277Z,101551.08
2019-03-23T08:58:41.120Z,101551.86
2019-03-23T09:01:13.224Z,101550.97
2019-03-23T09:03:52.476Z,101548.62
2019-03-23T09:06:19.213Z,101555.20
2019-03-23T09:08:51.410Z,101555.26
2019-03-23T09:11:23.570Z,101549.42
2019-03-23T09:13:55.622Z,101551.58
2019-03-23T09:16:27.792Z,101554.11
2019-03-23T09:18:59.904Z,101554.20
2019-03-23T09:21:31.963Z,101551.47
2019-03-23T09:24:04.023Z,101554.20
2019-03-23T09:26:36.147Z,101557.55
2019-03-23T09:29:08.254Z,101558.31
2019-03-23T09:31:40.382Z,101559.46
2019-03-23T09:34:12.557Z,101563.25
2019-03-23T09:36:44.703Z,101565.89
2019-03-23T09:39:16.829Z,101566.27
2019-03-23T09:41:49.081Z,101570.16
2019-03-23T09:44:21.226Z,101573.35
2019-03-23T09:46:53.385Z,101573.30
2019-03-23T09:49:25.546Z,101579.95
2019-03-23T09:51:57.689Z,101579.28
2019-03-23T09:54:29.779Z,101582.48
2019-03-23T09:57:01.918Z,101586.60
2019-03-23T09:59:34.075Z,101588.48
2019-03-23T10:02:06.257Z,101597.20
2019-03-23T10:04:38.380Z,101596.64
2019-03-23T10:07:10.507Z,101599.84
2019-03-23T10:09:42.640Z,101602.87
2019-03-23T10:12:14.712Z,101598.91
2019-03-23T10:14:46.828Z,101608.19
2019-03-23T10:17:18.953Z,101608.45
2019-03-23T10:19:51.130Z,101608.52
2019-03-23T10:22:23.288Z,101601.53
2019-03-23T10:24:55.424Z,101602.13
2019-03-23T10:27:27.665Z,101602.02
2019-03-23T10:29:59.883Z,101601.39
2019-03-23T10:32:32.016Z,101599.78
2019-03-23T10:35:04.365Z,101593.70
2019-03-23T10:37:36.510Z,101586.63
2019-03-23T10:40:09.050Z,101590.56
2019-03-23T10:42:43.244Z,101578.12
2019-03-23T10:45:15.183Z,101577.72
2019-03-23T10:47:47.404Z,101587.59
2019-03-23T10:50:19.588Z,101583.18
2019-03-23T10:52:51.646Z,101585.71
2019-03-23T10:55:23.735Z,101590.94
2019-03-23T10:57:55.947Z,101592.48
2019-03-23T11:00:28.072Z,101589.13
2019-03-23T11:03:00.264Z,101576.70
2019-03-23T11:05:32.356Z,101581.91
2019-03-23T11:08:04.510Z,101580.46
2019-03-23T11:10:41.774Z,101590.07
2019-03-23T11:13:10.513Z,101592.13
2019-03-23T11:15:42.731Z,101587.28
2019-03-23T11:18:14.903Z,101584.33
2019-03-23T11:20:47.060Z,101583.48
2019-03-23T11:23:19.273Z,101588.55
2019-03-23T11:25:51.318Z,101597.42
2019-03-23T11:28:23.503Z,101591.78
2019-03-23T11:30:55.665Z,101600.06
2019-03-23T11:33:27.759Z,101604.73
2019-03-23T11:35:59.893Z,101602.63
2019-03-23T11:38:32.025Z,101598.88
2019-03-23T11:41:04.361Z,101594.66
2019-03-23T11:43:36.489Z,101599.13
2019-03-23T11:46:08.600Z,101598.21
2019-03-23T11:48:40.744Z,101611.97
2019-03-23T11:51:12.871Z,101602.86
2019-03-23T11:53:44.998Z,101605.33
2019-03-23T11:56:17.271Z,101607.69
2019-03-23T11:58:49.448Z,101604.00
2019-03-23T12:01:21.597Z,101594.82
2019-03-23T12:03:53.720Z,101604.13
2019-03-23T12:06:26.083Z,101597.13
2019-03-23T12:08:58.253Z,101600.44
2019-03-23T12:11:30.462Z,101599.49
2019-03-23T12:14:02.630Z,101601.57
2019-03-23T12:16:34.689Z,101595.21
2019-03-23T12:19:06.851Z,101595.87
2019-03-23T12:21:38.953Z,101598.45
2019-03-23T12:24:11.037Z,101597.57
2019-03-23T12:26:43.144Z,101605.06
2019-03-23T12:29:15.267Z,101600.05
2019-03-23T12:31:47.410Z,101604.65
2019-03-23T12:34:19.577Z,101601.73
2019-03-23T12:36:51.670Z,101595.78
2019-03-23T12:39:23.731Z,101598.44
2019-03-23T12:41:55.898Z,101593.69
2019-03-23T12:44:28.004Z,101597.88
2019-03-23T12:47:00.132Z,101593.34
2019-03-23T12:49:32.281Z,101588.85
2019-03-23T12:52:04.427Z,101592.90
2019-03-23T12:54:36.577Z,101593.99
2019-03-23T12:57:08.715Z,101595.63
2019-03-23T12:59:40.736Z,101602.59
2019-03-23T13:02:12.831Z,101596.83
2019-03-23T13:04:44.881Z,101592.69
2019-03-23T13:07:17.000Z,101590.45
2019-03-23T13:09:49.070Z,101588.06
2019-03-23T13:12:21.164Z,101584.03
2019-03-23T13:14:53.437Z,101589.89
2019-03-23T13:17:25.569Z,101594.28
2019-03-23T13:19:57.689Z,101592.97
2019-03-23T13:22:29.851Z,101596.95
2019-03-23T13:25:01.912Z,101593.59
2019-03-23T13:27:33.975Z,101589.52
2019-03-23T13:30:07.426Z,101592.73
2019-03-23T13:32:39.580Z,101589.75
2019-03-23T13:35:11.703Z,101590.83
2019-03-23T13:37:43.907Z,101579.73
2019-03-23T13:40:16.198Z,101584.64
2019-03-23T13:42:48.379Z,101584.79
2019-03-23T13:45:20.484Z,101582.08
2019-03-23T13:47:54.794Z,101584.36
2019-03-23T13:50:30.103Z,101585.69
2019-03-23T13:53:02.266Z,101582.61
2019-03-23T13:55:36.167Z,101585.90
2019-03-23T13:58:12.823Z,101580.25
2019-03-23T14:00:45.019Z,101577.11
2019-03-23T14:03:17.134Z,101580.80
2019-03-23T14:05:49.239Z,101581.12
2019-03-23T14:08:21.385Z,101580.47
2019-03-23T14:10:53.531Z,101577.61
2019-03-23T14:13:27.739Z,101578.45
2019-03-23T14:15:59.767Z,101577.83
2019-03-23T14:18:31.899Z,101578.25
2019-03-23T14:21:04.115Z,101579.45
2019-03-23T14:23:36.222Z,101577.36
2019-03-23T14:26:08.272Z,101575.58
2019-03-23T14:28:40.487Z,101572.55
2019-03-23T14:31:12.697Z,101574.71
2019-03-23T14:33:44.825Z,101580.53
2019-03-23T14:36:16.958Z,101578.54
2019-03-23T14:38:49.081Z,101579.45
2019-03-23T14:41:21.105Z,101576.58
2019-03-23T14:43:53.223Z,101578.96
2019-03-23T14:46:25.354Z,101576.49
2019-03-23T14:49:01.807Z,101583.58
2019-03-23T14:51:31.317Z,101581.80
2019-03-23T14:54:03.509Z,101588.43
2019-03-23T14:56:35.704Z,101589.49
2019-03-23T14:59:07.861Z,101586.83
2019-03-23T15:01:39.904Z,101594.09
2019-03-23T15:04:12.021Z,101585.34
2019-03-23T15:06:44.137Z,101588.21
2019-03-23T15:09:16.316Z,101596.17
2019-03-23T15:11:48.438Z,101588.44
2019-03-23T15:14:20.484Z,101594.91
2019-03-23T15:16:52.632Z,101595.86
2019-03-23T15:19:25.097Z,101596.17
2019-03-23T15:21:57.294Z,101594.61
2019-03-23T15:24:29.460Z,101591.46
2019-03-23T15:27:01.531Z,101590.63
2019-03-23T15:29:33.718Z,101593.73
2019-03-23T15:32:05.842Z,101592.55
2019-03-23T15:34:37.970Z,101592.39
2019-03-23T15:37:10.107Z,101596.02
2019-03-23T15:39:42.314Z,101590.82
2019-03-23T15:42:24.259Z,101597.34
2019-03-23T15:44:48.237Z,101592.98
2019-03-23T15:47:20.398Z,101591.20
2019-03-23T15:49:52.486Z,101593.89
2019-03-23T15:52:24.565Z,101595.29
2019-03-23T15:54:56.617Z,101593.61
2019-03-23T15:57:28.706Z,101597.76
2019-03-23T16:00:00.728Z,101601.80
2019-03-23T16:02:32.854Z,101597.20
2019-03-23T16:05:05.673Z,101597.55
2019-03-23T16:07:37.841Z,101601.05
2019-03-23T16:10:10.383Z,101595.79
2019-03-23T16:12:42.532Z,101594.59
2019-03-23T16:15:15.290Z,101597.28
2019-03-23T16:17:47.428Z,101598.45
2019-03-23T16:20:19.619Z,101595.55
2019-03-23T16:22:51.764Z,101591.74
2019-03-23T16:25:23.914Z,101594.17
2019-03-23T16:27:56.136Z,101590.75
2019-03-23T16:30:34.894Z,101590.71
2019-03-23T16:33:07.046Z,101584.71
2019-03-23T16:35:39.236Z,101586.29
2019-03-23T16:38:11.337Z,101584.33
2019-03-23T16:40:43.487Z,101587.70
2019-03-23T16:43:15.691Z,101584.25
2019-03-23T16:45:47.801Z,101582.45
2019-03-23T16:48:19.960Z,101588.00
2019-03-23T16:50:52.085Z,101590.18
2019-03-23T16:53:24.221Z,101589.82
2019-03-23T16:55:57.454Z,101580.88
2019-03-23T16:58:29.550Z,101586.23
2019-03-23T17:01:01.545Z,101584.12
2019-03-23T17:03:33.692Z,101576.34
2019-03-23T17:06:05.829Z,101575.98
2019-03-23T17:08:38.002Z,101577.88
2019-03-23T17:11:10.071Z,101575.81
2019-03-23T17:13:42.185Z,101578.75
2019-03-23T17:16:14.278Z,101577.13
2019-03-23T17:18:46.428Z,101572.73
2019-03-23T17:21:18.557Z,101575.33
2019-03-23T17:23:50.670Z,101574.00
2019-03-23T17:26:22.783Z,101580.22
2019-03-23T17:28:54.939Z,101578.55
2019-03-23T17:31:27.067Z,101576.11
2019-03-23T17:33:59.225Z,101579.27
2019-03-23T17:36:31.272Z,101584.49
2019-03-23T17:39:05.022Z,101589.72
2019-03-23T17:41:37.122Z,101591.16
2019-03-23T17:44:09.254Z,101591.16
2019-03-23T17:46:41.395Z,101589.84
2019-03-23T17:49:13.526Z,101589.12
2019-03-23T17:51:45.671Z,101596.09
2019-03-23T17:54:17.811Z,101597.86
2019-03-23T17:56:49.992Z,101601.02
2019-03-23T17:59:22.146Z,101601.22
2019-03-23T18:01:54.337Z,101596.08
2019-03-23T18:04:26.357Z,101602.71
2019-03-23T18:06:58.509Z,101601.09
2019-03-23T18:09:30.639Z,101602.98
2019-03-23T18:12:02.784Z,101605.50
2019-03-23T18:14:34.907Z,101608.09
2019-03-23T18:17:07.060Z,101608.31
2019-03-23T18:19:39.254Z,101609.72
2019-03-23T18:22:11.405Z,101602.43
2019-03-23T18:24:43.545Z,101607.19
2019-03-23T18:27:15.748Z,101609.91
2019-03-23T18:29:47.903Z,101610.72
2019-03-23T18:32:20.126Z,101619.72
2019-03-23T18:34:52.231Z,101617.45
2019-03-23T18:37:24.391Z,101619.29
2019-03-23T18:39:56.528Z,101618.53
2019-03-23T18:42:28.632Z,101618.61
2019-03-23T18:45:00.788Z,101618.88
2019-03-23T18:47:32.892Z,101622.45
2019-03-23T18:50:05.316Z,101618.98
2019-03-23T18:52:37.436Z,101625.48
2019-03-23T18:55:09.813Z,101626.72
2019-03-23T18:57:41.955Z,101628.12
2019-03-23T19:00:18.229Z,101622.05
2019-03-23T19:02:50.369Z,101623.28
2019-03-23T19:05:22.503Z,101623.44
2019-03-23T19:07:54.673Z,101625.28
2019-03-23T19:10:26.821Z,101630.47
2019-03-23T19:12:58.967Z,101630.23
2019-03-23T19:15:31.298Z,101630.11
2019-03-23T19:18:03.400Z,101628.58
2019-03-23T19:20:35.494Z,101628.72
2019-03-23T19:23:08.034Z,101627.52
2019-03-23T19:25:40.105Z,101625.02
2019-03-23T19:28:12.172Z,101631.48
2019-03-23T19:30:44.237Z,101637.27
2019-03-23T19:33:16.303Z,101632.73
2019-03-23T19:35:48.315Z,101632.35
2019-03-23T19:38:20.371Z,101627.08
2019-03-23T19:40:52.428Z,101638.83
2019-03-23T19:43:24.407Z,101637.13
2019-03-23T19:45:56.571Z,101641.14
2019-03-23T19:48:28.772Z,101637.69
2019-03-23T19:51:00.902Z,101637.25
2019-03-23T19:53:33.101Z,101633.63
2019-03-23T19:56:05.271Z,101644.89
2019-03-23T19:58:37.457Z,101640.56
2019-03-23T20:01:09.600Z,101640.95
2019-03-23T20:03:41.751Z,101634.72
2019-03-23T20:06:13.926Z,101634.91
2019-03-23T20:08:46.038Z,101638.11
2019-03-23T20:11:18.286Z,101647.16
2019-03-23T20:13:58.455Z,101645.91
2019-03-23T20:16:24.258Z,101645.12
2019-03-23T20:18:56.385Z,101646.21
2019-03-23T20:21:28.509Z,101646.73
2019-03-23T20:24:00.652Z,101652.61
2019-03-23T20:26:32.920Z,101650.45
2019-03-23T20:29:05.031Z,101645.02
2019-03-23T20:31:37.182Z,101651.28
2019-03-23T20:34:09.348Z,101659.87
2019-03-23T20:36:41.531Z,101649.61
2019-03-23T20:39:13.825Z,101648.72
2019-03-23T20:41:45.955Z,101651.47
2019-03-23T20:44:18.081Z,101656.58
2019-03-23T20:46:50.343Z,101644.22
2019-03-23T20:49:23.263Z,101642.57
2019-03-23T20:51:55.821Z,101646.95
2019-03-23T20:54:27.953Z,101646.25
2019-03-23T20:57:00.197Z,101638.00
2019-03-23T20:59:32.298Z,101640.92
2019-03-23T21:02:04.471Z,101642.63
2019-03-23T21:04:36.695Z,101637.63
2019-03-23T21:07:08.910Z,101640.27
2019-03-23T21:09:41.077Z,101629.44
2019-03-23T21:12:13.187Z,101629.06
2019-03-23T21:14:45.399Z,101638.11
2019-03-23T21:17:35.278Z,101623.56
2019-03-23T21:20:18.350Z,101625.11
2019-03-23T21:23:09.392Z,101619.94
2019-03-23T21:25:53.630Z,101623.12
2019-03-23T21:28:36.535Z,101620.72
2019-03-23T21:31:20.163Z,101617.63
2019-03-23T21:34:11.121Z,101615.00
2019-03-23T21:37:02.003Z,101619.39
2019-03-23T21:39:45.559Z,101612.81
2019-03-23T21:42:36.517Z,101610.88
2019-03-23T21:45:19.588Z,101614.11
2019-03-23T21:48:10.531Z,101614.02
2019-03-23T21:50:53.370Z,101606.42
2019-03-23T21:53:44.313Z,101607.41
2019-03-23T21:56:27.448Z,101599.56
2019-03-23T21:59:18.385Z,101592.21
2019-03-23T22:02:01.462Z,101603.08
2019-03-23T22:04:52.448Z,101600.83
2019-03-23T22:07:35.378Z,101594.79
2019-03-23T22:10:26.366Z,101594.34
2019-03-23T22:13:17.265Z,101596.37
2019-03-23T22:16:00.661Z,101595.87
2019-03-23T22:18:51.547Z,101604.16
2019-03-23T22:21:34.396Z,101600.22
2019-03-23T22:24:25.319Z,101599.98
2019-03-23T22:27:08.980Z,101589.84
2019-03-23T22:29:59.902Z,101595.05
2019-03-23T22:32:42.730Z,101593.69
2019-03-23T22:35:33.630Z,101589.13
2019-03-23T22:38:17.281Z,101593.90
2019-03-23T22:41:08.215Z,101581.55
2019-03-23T22:43:51.672Z,101579.45
2019-03-23T22:46:42.590Z,101581.70
2019-03-23T22:49:25.471Z,101587.46
2019-03-23T22:52:16.385Z,101577.70
2019-03-23T22:54:59.570Z,101577.81
2019-03-23T22:57:50.478Z,101568.26
2019-03-23T23:00:52.331Z,101578.39
2019-03-23T23:03:43.355Z,101567.24
2019-03-23T23:06:27.108Z,101571.09
2019-03-23T23:09:18.060Z,101567.80
2019-03-23T23:12:01.507Z,101569.41
2019-03-23T23:14:53.714Z,101566.20
2019-03-23T23:17:57.120Z,101571.52
2019-03-23T23:20:48.054Z,101569.03
2019-03-23T23:23:30.854Z,101567.18
2019-03-23T23:26:21.814Z,101565.03
2019-03-23T23:29:05.028Z,101567.81
2019-03-23T23:31:55.992Z,101571.31
2019-03-23T23:34:46.917Z,101566.50
2019-03-23T23:37:29.817Z,101566.30
2019-03-23T23:40:20.715Z,101567.13
2019-03-23T23:43:04.249Z,101569.80
2019-03-23T23:45:55.177Z,101572.48
2019-03-23T23:48:38.182Z,101560.40
2019-03-23T23:51:29.087Z,101556.12
2019-03-23T23:54:12.401Z,101559.47
2019-03-23T23:57:03.329Z,101561.77
2019-03-23T23:59:46.999Z,101559.71
